Terminal Aerodrome Forecast
Issued by NWS Wilmington, OH

Home | Current Version | Previous Version | Text Only | Print | Product List | Glossary On
Versions: 1 2 3 4 5 6 7 8 9 10 11 12 13 14 15 16 17
000
FTUS41 KILN 310540
TAFILN
TAF
KILN 310540Z 3106/0106 22003KT P6SM SKC
      TEMPO 3108/3112 2SM BR
     FM311400 24006KT P6SM FEW030 SCT070
     FM311800 23006KT P6SM VCSH SCT035
     FM010100 00000KT P6SM SCT250
      TEMPO 0104/0106 4SM BR SKC=

USA.gov is the U.S. government's official web portal to all federal, state and local government web resources and services.